sensor_id;sensor_type;location;lat;lon;timestamp;pressure;altitude;pressure_sealevel;temperature;humidity
6464;BME280;3265;42.694;23.282;2023-02-20T00:02:20;94957.91;;;10.73;66.03
6464;BME280;3265;42.694;23.282;2023-02-20T00:04:47;94977.88;;;10.79;66.22
6464;BME280;3265;42.694;23.282;2023-02-20T00:07:14;94976.72;;;10.68;66.91
6464;BME280;3265;42.694;23.282;2023-02-20T00:09:41;94974.13;;;10.68;67.97
6464;BME280;3265;42.694;23.282;2023-02-20T00:12:08;94970.38;;;10.64;67.81
6464;BME280;3265;42.694;23.282;2023-02-20T00:14:36;94977.41;;;10.57;68.74
6464;BME280;3265;42.694;23.282;2023-02-20T00:17:03;94946.84;;;10.53;68.99
6464;BME280;3265;42.694;23.282;2023-02-20T00:19:29;94943.06;;;10.49;68.59
6464;BME280;3265;42.694;23.282;2023-02-20T00:21:56;94949.88;;;10.50;69.00
6464;BME280;3265;42.694;23.282;2023-02-20T00:24:23;94948.50;;;10.47;69.22
6464;BME280;3265;42.694;23.282;2023-02-20T00:26:51;94958.63;;;10.55;69.29
6464;BME280;3265;42.694;23.282;2023-02-20T00:29:19;94961.81;;;10.57;69.55
6464;BME280;3265;42.694;23.282;2023-02-20T00:31:58;94954.88;;;10.45;70.82
6464;BME280;3265;42.694;23.282;2023-02-20T00:34:27;94961.91;;;10.44;70.83
6464;BME280;3265;42.694;23.282;2023-02-20T00:37:00;94942.13;;;10.37;71.30
6464;BME280;3265;42.694;23.282;2023-02-20T00:39:27;94951.38;;;10.33;71.65
6464;BME280;3265;42.694;23.282;2023-02-20T00:41:54;94943.03;;;10.24;72.55
6464;BME280;3265;42.694;23.282;2023-02-20T00:44:26;94950.22;;;10.22;72.68
6464;BME280;3265;42.694;23.282;2023-02-20T00:46:53;94940.69;;;10.09;72.92
6464;BME280;3265;42.694;23.282;2023-02-20T00:49:36;94954.06;;;10.06;73.20
6464;BME280;3265;42.694;23.282;2023-02-20T00:52:06;94968.28;;;10.04;74.47
6464;BME280;3265;42.694;23.282;2023-02-20T00:54:33;94978.25;;;10.00;74.38
6464;BME280;3265;42.694;23.282;2023-02-20T00:57:00;94973.66;;;10.02;75.33
6464;BME280;3265;42.694;23.282;2023-02-20T00:59:27;94968.47;;;9.96;74.85
6464;BME280;3265;42.694;23.282;2023-02-20T01:02:01;94985.31;;;9.80;75.77
6464;BME280;3265;42.694;23.282;2023-02-20T01:04:37;94994.16;;;9.59;76.89
6464;BME280;3265;42.694;23.282;2023-02-20T01:07:04;94994.97;;;9.53;77.44
6464;BME280;3265;42.694;23.282;2023-02-20T01:09:30;95003.56;;;9.47;77.41
6464;BME280;3265;42.694;23.282;2023-02-20T01:11:57;94996.75;;;9.59;78.17
6464;BME280;3265;42.694;23.282;2023-02-20T01:14:24;94992.75;;;9.63;77.76
6464;BME280;3265;42.694;23.282;2023-02-20T01:16:52;94991.53;;;9.73;77.32
6464;BME280;3265;42.694;23.282;2023-02-20T01:19:20;94997.75;;;9.65;77.56
6464;BME280;3265;42.694;23.282;2023-02-20T01:21:48;94958.28;;;9.37;76.81
6464;BME280;3265;42.694;23.282;2023-02-20T01:24:16;94997.72;;;9.72;77.77
6464;BME280;3265;42.694;23.282;2023-02-20T01:26:45;95003.34;;;9.62;77.27
6464;BME280;3265;42.694;23.282;2023-02-20T01:29:12;95013.31;;;9.65;78.18
6464;BME280;3265;42.694;23.282;2023-02-20T01:31:39;95008.94;;;9.59;78.73
6464;BME280;3265;42.694;23.282;2023-02-20T01:34:06;95018.31;;;9.47;80.67
6464;BME280;3265;42.694;23.282;2023-02-20T01:36:33;95018.94;;;9.36;81.07
6464;BME280;3265;42.694;23.282;2023-02-20T01:39:01;95016.53;;;9.41;81.11
6464;BME280;3265;42.694;23.282;2023-02-20T01:41:28;95017.94;;;9.43;80.58
6464;BME280;3265;42.694;23.282;2023-02-20T01:43:55;95027.91;;;9.53;81.03
6464;BME280;3265;42.694;23.282;2023-02-20T01:46:43;95033.28;;;9.58;81.23
6464;BME280;3265;42.694;23.282;2023-02-20T01:49:15;95035.84;;;9.71;80.46
6464;BME280;3265;42.694;23.282;2023-02-20T01:51:47;95012.31;;;9.59;81.07
6464;BME280;3265;42.694;23.282;2023-02-20T01:54:20;95025.47;;;9.64;81.77
6464;BME280;3265;42.694;23.282;2023-02-20T01:56:48;95045.06;;;9.60;82.51
6464;BME280;3265;42.694;23.282;2023-02-20T01:59:16;95045.25;;;9.59;82.81
6464;BME280;3265;42.694;23.282;2023-02-20T02:01:43;95039.88;;;9.41;83.29
6464;BME280;3265;42.694;23.282;2023-02-20T02:04:11;95025.72;;;9.37;84.25
6464;BME280;3265;42.694;23.282;2023-02-20T02:06:41;95036.69;;;9.39;83.44
6464;BME280;3265;42.694;23.282;2023-02-20T02:09:15;95039.28;;;9.39;84.74
6464;BME280;3265;42.694;23.282;2023-02-20T02:11:46;95050.88;;;9.36;83.99
6464;BME280;3265;42.694;23.282;2023-02-20T02:14:14;95043.28;;;9.35;84.55
6464;BME280;3265;42.694;23.282;2023-02-20T02:16:49;95054.03;;;9.38;83.05
6464;BME280;3265;42.694;23.282;2023-02-20T02:19:33;95037.91;;;9.36;83.02
6464;BME280;3265;42.694;23.282;2023-02-20T02:22:31;95039.50;;;9.18;83.65
6464;BME280;3265;42.694;23.282;2023-02-20T02:25:15;95050.66;;;8.98;82.53
6464;BME280;3265;42.694;23.282;2023-02-20T02:34:20;95069.97;;;8.89;83.17
6464;BME280;3265;42.694;23.282;2023-02-20T02:37:02;95077.16;;;8.87;84.14
6464;BME280;3265;42.694;23.282;2023-02-20T02:39:43;95062.59;;;8.80;84.02
6464;BME280;3265;42.694;23.282;2023-02-20T02:42:17;95064.78;;;8.76;84.06
6464;BME280;3265;42.694;23.282;2023-02-20T02:44:51;95057.81;;;8.77;83.17
6464;BME280;3265;42.694;23.282;2023-02-20T02:47:26;95064.19;;;8.74;84.16
6464;BME280;3265;42.694;23.282;2023-02-20T02:49:58;95071.13;;;8.67;84.10
6464;BME280;3265;42.694;23.282;2023-02-20T02:52:29;95073.94;;;8.66;84.12
6464;BME280;3265;42.694;23.282;2023-02-20T02:55:16;95075.91;;;8.64;85.70
6464;BME280;3265;42.694;23.282;2023-02-20T02:57:44;95066.16;;;8.66;85.44
6464;BME280;3265;42.694;23.282;2023-02-20T03:00:14;95065.53;;;8.57;85.90
6464;BME280;3265;42.694;23.282;2023-02-20T03:02:47;95069.72;;;8.65;85.25
6464;BME280;3265;42.694;23.282;2023-02-20T03:05:18;95068.34;;;8.62;85.46
6464;BME280;3265;42.694;23.282;2023-02-20T03:07:52;95058.94;;;8.54;85.45
6464;BME280;3265;42.694;23.282;2023-02-20T03:10:21;95071.91;;;8.61;86.19
6464;BME280;3265;42.694;23.282;2023-02-20T03:13:00;95080.84;;;8.52;86.16
6464;BME280;3265;42.694;23.282;2023-02-20T03:15:30;95065.69;;;8.49;85.72
6464;BME280;3265;42.694;23.282;2023-02-20T03:18:08;95087.03;;;8.51;85.57
6464;BME280;3265;42.694;23.282;2023-02-20T03:20:39;95090.78;;;8.48;85.05
6464;BME280;3265;42.694;23.282;2023-02-20T03:23:12;95100.31;;;8.35;85.73
6464;BME280;3265;42.694;23.282;2023-02-20T03:25:45;95095.34;;;8.33;84.55
6464;BME280;3265;42.694;23.282;2023-02-20T03:28:16;95099.31;;;8.36;85.18
6464;BME280;3265;42.694;23.282;2023-02-20T03:30:46;95112.16;;;8.23;85.40
6464;BME280;3265;42.694;23.282;2023-02-20T03:33:19;95101.00;;;8.16;85.67
6464;BME280;3265;42.694;23.282;2023-02-20T03:36:07;95115.50;;;8.17;85.07
6464;BME280;3265;42.694;23.282;2023-02-20T03:38:58;95124.72;;;8.26;84.89
6464;BME280;3265;42.694;23.282;2023-02-20T03:41:46;95107.66;;;8.31;84.62
6464;BME280;3265;42.694;23.282;2023-02-20T03:44:31;95112.31;;;8.42;83.41
6464;BME280;3265;42.694;23.282;2023-02-20T03:47:00;95103.69;;;8.35;83.84
6464;BME280;3265;42.694;23.282;2023-02-20T03:49:31;95103.28;;;8.32;84.14
6464;BME280;3265;42.694;23.282;2023-02-20T03:51:58;95116.22;;;8.32;84.18
6464;BME280;3265;42.694;23.282;2023-02-20T03:54:28;95110.66;;;8.35;83.20
6464;BME280;3265;42.694;23.282;2023-02-20T03:56:59;95131.38;;;8.35;83.18
6464;BME280;3265;42.694;23.282;2023-02-20T03:59:31;95144.16;;;8.36;83.07
6464;BME280;3265;42.694;23.282;2023-02-20T04:02:02;95137.75;;;8.32;82.69
6464;BME280;3265;42.694;23.282;2023-02-20T04:04:32;95129.00;;;8.33;82.60
6464;BME280;3265;42.694;23.282;2023-02-20T04:07:07;95140.75;;;8.36;82.60
6464;BME280;3265;42.694;23.282;2023-02-20T04:09:40;95137.94;;;8.31;82.58
6464;BME280;3265;42.694;23.282;2023-02-20T04:12:16;95141.13;;;8.33;82.29
6464;BME280;3265;42.694;23.282;2023-02-20T04:14:44;95152.34;;;8.46;82.00
6464;BME280;3265;42.694;23.282;2023-02-20T04:17:14;95134.22;;;8.46;81.63
6464;BME280;3265;42.694;23.282;2023-02-20T04:19:41;95123.81;;;8.40;81.69
6464;BME280;3265;42.694;23.282;2023-02-20T04:22:12;95134.63;;;8.50;82.29
6464;BME280;3265;42.694;23.282;2023-02-20T04:24:45;95132.47;;;8.53;81.20
6464;BME280;3265;42.694;23.282;2023-02-20T04:27:13;95143.75;;;8.39;82.17
6464;BME280;3265;42.694;23.282;2023-02-20T04:29:40;95148.84;;;8.26;83.96
6464;BME280;3265;42.694;23.282;2023-02-20T04:32:07;95161.13;;;8.18;84.52
6464;BME280;3265;42.694;23.282;2023-02-20T04:34:34;95162.16;;;8.23;83.81
6464;BME280;3265;42.694;23.282;2023-02-20T04:37:06;95164.22;;;8.28;84.53
6464;BME280;3265;42.694;23.282;2023-02-20T04:39:34;95152.84;;;8.29;84.21
6464;BME280;3265;42.694;23.282;2023-02-20T04:42:02;95145.38;;;8.13;83.95
6464;BME280;3265;42.694;23.282;2023-02-20T04:44:29;95141.19;;;8.12;83.31
6464;BME280;3265;42.694;23.282;2023-02-20T04:47:01;95150.50;;;8.06;83.74
6464;BME280;3265;42.694;23.282;2023-02-20T04:49:28;95152.91;;;8.08;82.94
6464;BME280;3265;42.694;23.282;2023-02-20T04:51:55;95131.13;;;7.95;82.33
6464;BME280;3265;42.694;23.282;2023-02-20T04:54:22;95155.47;;;8.01;81.97
6464;BME280;3265;42.694;23.282;2023-02-20T04:56:49;95169.00;;;8.03;80.86
6464;BME280;3265;42.694;23.282;2023-02-20T04:59:18;95161.44;;;8.02;79.60
6464;BME280;3265;42.694;23.282;2023-02-20T05:01:45;95166.63;;;8.02;78.40
6464;BME280;3265;42.694;23.282;2023-02-20T05:04:16;95178.09;;;7.92;77.97
6464;BME280;3265;42.694;23.282;2023-02-20T05:06:45;95169.34;;;7.93;77.13
6464;BME280;3265;42.694;23.282;2023-02-20T05:09:12;95186.81;;;7.85;77.57
6464;BME280;3265;42.694;23.282;2023-02-20T05:11:39;95204.63;;;7.73;76.15
6464;BME280;3265;42.694;23.282;2023-02-20T05:14:06;95182.69;;;7.69;75.87
6464;BME280;3265;42.694;23.282;2023-02-20T05:16:36;95181.28;;;7.67;75.35
6464;BME280;3265;42.694;23.282;2023-02-20T05:19:03;95181.66;;;7.64;75.18
6464;BME280;3265;42.694;23.282;2023-02-20T05:21:30;95177.03;;;7.59;74.93
6464;BME280;3265;42.694;23.282;2023-02-20T05:24:14;95196.22;;;7.71;75.06
6464;BME280;3265;42.694;23.282;2023-02-20T05:26:41;95210.78;;;7.72;75.30
6464;BME280;3265;42.694;23.282;2023-02-20T05:29:08;95203.63;;;7.74;75.02
6464;BME280;3265;42.694;23.282;2023-02-20T05:31:38;95193.22;;;7.68;75.32
6464;BME280;3265;42.694;23.282;2023-02-20T05:34:05;95224.56;;;7.79;75.46
6464;BME280;3265;42.694;23.282;2023-02-20T05:36:32;95221.97;;;7.79;75.59
6464;BME280;3265;42.694;23.282;2023-02-20T05:38:58;95230.38;;;7.81;75.12
6464;BME280;3265;42.694;23.282;2023-02-20T05:41:25;95221.72;;;7.74;75.61
6464;BME280;3265;42.694;23.282;2023-02-20T05:43:52;95233.09;;;7.73;76.85
6464;BME280;3265;42.694;23.282;2023-02-20T05:46:22;95225.50;;;7.72;77.32
6464;BME280;3265;42.694;23.282;2023-02-20T05:48:51;95228.38;;;7.62;78.75
6464;BME280;3265;42.694;23.282;2023-02-20T05:51:20;95210.53;;;7.46;79.76
6464;BME280;3265;42.694;23.282;2023-02-20T05:53:47;95209.38;;;7.49;80.50
6464;BME280;3265;42.694;23.282;2023-02-20T05:56:13;95213.00;;;7.54;79.99
6464;BME280;3265;42.694;23.282;2023-02-20T05:58:41;95225.38;;;7.59;79.99
6464;BME280;3265;42.694;23.282;2023-02-20T06:01:08;95219.22;;;7.60;79.02
6464;BME280;3265;42.694;23.282;2023-02-20T06:03:36;95219.94;;;7.75;78.27
6464;BME280;3265;42.694;23.282;2023-02-20T06:06:04;95247.84;;;7.79;77.42
6464;BME280;3265;42.694;23.282;2023-02-20T06:08:31;95238.22;;;7.94;75.16
6464;BME280;3265;42.694;23.282;2023-02-20T06:10:58;95241.41;;;7.96;74.84
6464;BME280;3265;42.694;23.282;2023-02-20T06:13:25;95248.31;;;8.11;73.64
6464;BME280;3265;42.694;23.282;2023-02-20T06:15:52;95250.13;;;8.17;72.79
6464;BME280;3265;42.694;23.282;2023-02-20T06:18:19;95255.06;;;8.12;72.20
6464;BME280;3265;42.694;23.282;2023-02-20T06:20:45;95249.38;;;8.23;70.66
6464;BME280;3265;42.694;23.282;2023-02-20T06:23:14;95252.34;;;8.20;70.31
6464;BME280;3265;42.694;23.282;2023-02-20T06:25:41;95244.09;;;8.31;70.33
6464;BME280;3265;42.694;23.282;2023-02-20T06:28:07;95260.47;;;8.38;70.95
6464;BME280;3265;42.694;23.282;2023-02-20T06:30:34;95257.72;;;8.39;71.75
6464;BME280;3265;42.694;23.282;2023-02-20T06:33:01;95254.91;;;8.41;71.96
6464;BME280;3265;42.694;23.282;2023-02-20T06:35:28;95271.50;;;8.46;70.74
6464;BME280;3265;42.694;23.282;2023-02-20T06:37:55;95262.31;;;8.44;69.64
6464;BME280;3265;42.694;23.282;2023-02-20T06:40:23;95275.69;;;8.47;69.11
6464;BME280;3265;42.694;23.282;2023-02-20T06:42:50;95269.19;;;8.58;67.02
6464;BME280;3265;42.694;23.282;2023-02-20T06:45:16;95281.19;;;8.66;67.09
6464;BME280;3265;42.694;23.282;2023-02-20T06:47:43;95260.38;;;8.52;66.18
6464;BME280;3265;42.694;23.282;2023-02-20T06:50:10;95267.88;;;8.41;67.79
6464;BME280;3265;42.694;23.282;2023-02-20T06:52:37;95263.50;;;8.41;66.92
6464;BME280;3265;42.694;23.282;2023-02-20T06:55:04;95271.78;;;8.30;68.92
6464;BME280;3265;42.694;23.282;2023-02-20T06:57:33;95277.94;;;8.29;68.27
6464;BME280;3265;42.694;23.282;2023-02-20T07:00:00;95257.53;;;8.20;68.39
6464;BME280;3265;42.694;23.282;2023-02-20T07:02:26;95269.44;;;8.14;67.61
6464;BME280;3265;42.694;23.282;2023-02-20T07:04:53;95282.81;;;8.18;67.75
6464;BME280;3265;42.694;23.282;2023-02-20T07:07:20;95291.69;;;8.30;65.92
6464;BME280;3265;42.694;23.282;2023-02-20T07:09:47;95309.50;;;8.39;64.50
6464;BME280;3265;42.694;23.282;2023-02-20T07:12:14;95283.19;;;8.36;63.67
6464;BME280;3265;42.694;23.282;2023-02-20T07:14:42;95282.97;;;8.37;62.97
6464;BME280;3265;42.694;23.282;2023-02-20T07:17:09;95293.03;;;8.47;61.65
6464;BME280;3265;42.694;23.282;2023-02-20T07:19:35;95308.56;;;8.47;60.92
6464;BME280;3265;42.694;23.282;2023-02-20T07:22:02;95295.81;;;8.45;61.00
6464;BME280;3265;42.694;23.282;2023-02-20T07:24:29;95298.19;;;8.47;60.42
6464;BME280;3265;42.694;23.282;2023-02-20T07:26:56;95301.00;;;8.52;60.75
6464;BME280;3265;42.694;23.282;2023-02-20T07:29:23;95290.84;;;8.50;60.01
6464;BME280;3265;42.694;23.282;2023-02-20T07:31:51;95291.22;;;8.47;59.43
6464;BME280;3265;42.694;23.282;2023-02-20T07:34:18;95306.78;;;8.47;60.06
6464;BME280;3265;42.694;23.282;2023-02-20T07:36:45;95296.78;;;8.44;59.75
6464;BME280;3265;42.694;23.282;2023-02-20T07:39:12;95298.63;;;8.50;58.77
6464;BME280;3265;42.694;23.282;2023-02-20T07:41:39;95302.94;;;8.43;58.73
6464;BME280;3265;42.694;23.282;2023-02-20T07:44:06;95294.94;;;8.38;57.69
6464;BME280;3265;42.694;23.282;2023-02-20T07:46:33;95312.13;;;8.46;57.57
6464;BME280;3265;42.694;23.282;2023-02-20T07:49:02;95309.03;;;8.29;58.48
6464;BME280;3265;42.694;23.282;2023-02-20T07:51:30;95313.13;;;8.24;58.66
6464;BME280;3265;42.694;23.282;2023-02-20T07:53:57;95308.16;;;8.22;58.96
6464;BME280;3265;42.694;23.282;2023-02-20T07:56:24;95310.16;;;8.27;59.27
6464;BME280;3265;42.694;23.282;2023-02-20T07:58:51;95302.88;;;8.30;59.68
6464;BME280;3265;42.694;23.282;2023-02-20T08:01:18;95321.66;;;8.39;58.19
6464;BME280;3265;42.694;23.282;2023-02-20T08:03:45;95315.91;;;8.43;57.84
6464;BME280;3265;42.694;23.282;2023-02-20T08:06:17;95317.66;;;8.36;57.95
6464;BME280;3265;42.694;23.282;2023-02-20T08:08:46;95314.03;;;8.31;59.03
6464;BME280;3265;42.694;23.282;2023-02-20T08:11:14;95310.16;;;8.48;56.97
6464;BME280;3265;42.694;23.282;2023-02-20T08:13:42;95314.97;;;8.51;56.50
6464;BME280;3265;42.694;23.282;2023-02-20T08:16:09;95313.00;;;8.53;56.75
6464;BME280;3265;42.694;23.282;2023-02-20T08:18:35;95329.72;;;8.50;56.57
6464;BME280;3265;42.694;23.282;2023-02-20T08:21:03;95331.19;;;8.60;56.91
6464;BME280;3265;42.694;23.282;2023-02-20T08:23:31;95333.41;;;8.69;55.07
6464;BME280;3265;42.694;23.282;2023-02-20T08:25:58;95346.50;;;8.61;54.94
6464;BME280;3265;42.694;23.282;2023-02-20T08:28:25;95339.94;;;8.59;55.32
6464;BME280;3265;42.694;23.282;2023-02-20T08:30:52;95329.94;;;8.55;55.34
6464;BME280;3265;42.694;23.282;2023-02-20T08:33:19;95340.97;;;8.64;55.50
6464;BME280;3265;42.694;23.282;2023-02-20T08:35:45;95350.72;;;8.62;56.19
6464;BME280;3265;42.694;23.282;2023-02-20T08:38:24;95330.06;;;8.75;55.38
6464;BME280;3265;42.694;23.282;2023-02-20T08:40:53;95335.63;;;8.72;55.38
6464;BME280;3265;42.694;23.282;2023-02-20T08:43:20;95330.66;;;8.71;56.08
6464;BME280;3265;42.694;23.282;2023-02-20T08:45:47;95315.16;;;8.77;54.87
6464;BME280;3265;42.694;23.282;2023-02-20T08:48:14;95335.25;;;8.75;55.49
6464;BME280;3265;42.694;23.282;2023-02-20T08:50:41;95327.69;;;8.80;54.85
6464;BME280;3265;42.694;23.282;2023-02-20T08:53:07;95309.97;;;8.77;53.92
6464;BME280;3265;42.694;23.282;2023-02-20T08:55:34;95311.16;;;8.81;53.64
6464;BME280;3265;42.694;23.282;2023-02-20T08:58:02;95325.84;;;9.02;54.17
6464;BME280;3265;42.694;23.282;2023-02-20T09:00:29;95310.19;;;9.23;53.76
6464;BME280;3265;42.694;23.282;2023-02-20T09:02:56;95291.50;;;9.41;52.40
6464;BME280;3265;42.694;23.282;2023-02-20T09:05:24;95295.97;;;9.60;50.48
6464;BME280;3265;42.694;23.282;2023-02-20T09:07:51;95300.56;;;9.71;49.96
6464;BME280;3265;42.694;23.282;2023-02-20T09:10:18;95305.78;;;9.78;50.43
6464;BME280;3265;42.694;23.282;2023-02-20T09:12:45;95317.59;;;10.00;48.92
6464;BME280;3265;42.694;23.282;2023-02-20T09:15:13;95305.81;;;9.97;49.34
6464;BME280;3265;42.694;23.282;2023-02-20T09:17:42;95302.69;;;10.21;48.45
6464;BME280;3265;42.694;23.282;2023-02-20T09:20:10;95330.84;;;10.57;47.42
6464;BME280;3265;42.694;23.282;2023-02-20T09:22:37;95318.66;;;10.64;46.97
6464;BME280;3265;42.694;23.282;2023-02-20T09:25:04;95325.84;;;10.75;46.97
6464;BME280;3265;42.694;23.282;2023-02-20T09:27:31;95318.63;;;10.91;46.67
6464;BME280;3265;42.694;23.282;2023-02-20T09:29:58;95323.56;;;11.18;46.31
6464;BME280;3265;42.694;23.282;2023-02-20T09:32:27;95317.56;;;11.11;46.01
6464;BME280;3265;42.694;23.282;2023-02-20T09:34:54;95329.50;;;11.32;46.22
6464;BME280;3265;42.694;23.282;2023-02-20T09:37:22;95315.28;;;11.34;45.85
6464;BME280;3265;42.694;23.282;2023-02-20T09:39:49;95317.78;;;11.10;46.40
6464;BME280;3265;42.694;23.282;2023-02-20T09:42:24;95308.69;;;11.32;46.66
6464;BME280;3265;42.694;23.282;2023-02-20T09:45:04;95317.63;;;11.49;46.06
6464;BME280;3265;42.694;23.282;2023-02-20T09:47:52;95321.16;;;11.74;45.42
6464;BME280;3265;42.694;23.282;2023-02-20T09:50:28;95307.63;;;11.90;45.04
6464;BME280;3265;42.694;23.282;2023-02-20T09:53:01;95298.28;;;12.14;43.96
6464;BME280;3265;42.694;23.282;2023-02-20T09:55:35;95295.34;;;12.53;43.01
6464;BME280;3265;42.694;23.282;2023-02-20T09:58:05;95314.75;;;12.08;43.19
6464;BME280;3265;42.694;23.282;2023-02-20T10:00:34;95301.19;;;12.24;42.96
6464;BME280;3265;42.694;23.282;2023-02-20T10:03:15;95317.38;;;12.58;41.91
6464;BME280;3265;42.694;23.282;2023-02-20T10:05:44;95309.47;;;12.89;40.72
6464;BME280;3265;42.694;23.282;2023-02-20T10:08:16;95321.56;;;13.26;39.20
6464;BME280;3265;42.694;23.282;2023-02-20T10:10:43;95309.50;;;13.43;38.84
6464;BME280;3265;42.694;23.282;2023-02-20T10:13:25;95297.81;;;13.46;38.25
6464;BME280;3265;42.694;23.282;2023-02-20T10:16:00;95314.88;;;13.48;37.60
6464;BME280;3265;42.694;23.282;2023-02-20T10:18:39;95318.88;;;13.81;37.28
6464;BME280;3265;42.694;23.282;2023-02-20T10:21:14;95316.03;;;13.52;37.55
6464;BME280;3265;42.694;23.282;2023-02-20T10:23:47;95323.66;;;13.84;37.17
6464;BME280;3265;42.694;23.282;2023-02-20T10:26:19;95301.06;;;14.19;35.72
6464;BME280;3265;42.694;23.282;2023-02-20T10:28:47;95309.53;;;14.33;35.24
6464;BME280;3265;42.694;23.282;2023-02-20T10:31:24;95300.81;;;14.62;35.76
6464;BME280;3265;42.694;23.282;2023-02-20T10:33:57;95293.75;;;14.51;35.62
6464;BME280;3265;42.694;23.282;2023-02-20T10:36:27;95279.88;;;14.62;35.68
6464;BME280;3265;42.694;23.282;2023-02-20T10:39:00;95279.31;;;14.48;35.59
6464;BME280;3265;42.694;23.282;2023-02-20T10:41:33;95275.88;;;14.36;35.84
6464;BME280;3265;42.694;23.282;2023-02-20T10:44:08;95282.00;;;14.30;36.52
6464;BME280;3265;42.694;23.282;2023-02-20T10:46:39;95271.47;;;14.60;35.87
6464;BME280;3265;42.694;23.282;2023-02-20T10:49:15;95288.75;;;14.96;35.04
6464;BME280;3265;42.694;23.282;2023-02-20T10:51:45;95302.06;;;15.06;34.22
6464;BME280;3265;42.694;23.282;2023-02-20T10:54:18;95282.09;;;15.28;33.44
6464;BME280;3265;42.694;23.282;2023-02-20T10:56:52;95269.84;;;15.05;33.78
6464;BME280;3265;42.694;23.282;2023-02-20T10:59:24;95286.22;;;15.12;34.19
6464;BME280;3265;42.694;23.282;2023-02-20T11:01:55;95276.53;;;15.64;33.49
6464;BME280;3265;42.694;23.282;2023-02-20T11:04:26;95288.44;;;15.44;33.86
6464;BME280;3265;42.694;23.282;2023-02-20T11:06:57;95298.69;;;15.45;34.25
6464;BME280;3265;42.694;23.282;2023-02-20T11:09:25;95286.59;;;15.96;33.82
6464;BME280;3265;42.694;23.282;2023-02-20T11:11:53;95281.75;;;16.04;33.27
6464;BME280;3265;42.694;23.282;2023-02-20T11:14:25;95288.25;;;16.02;32.80
6464;BME280;3265;42.694;23.282;2023-02-20T11:16:58;95277.94;;;16.12;32.71
6464;BME280;3265;42.694;23.282;2023-02-20T11:19:31;95285.50;;;16.25;32.80
6464;BME280;3265;42.694;23.282;2023-02-20T11:21:59;95283.53;;;16.65;32.77
6464;BME280;3265;42.694;23.282;2023-02-20T11:24:29;95288.44;;;16.95;31.64
6464;BME280;3265;42.694;23.282;2023-02-20T11:27:09;95293.84;;;17.05;31.37
6464;BME280;3265;42.694;23.282;2023-02-20T11:29:40;95293.94;;;17.32;31.46
6464;BME280;3265;42.694;23.282;2023-02-20T11:32:32;95243.97;;;17.05;31.15
6464;BME280;3265;42.694;23.282;2023-02-20T11:35:14;95285.34;;;17.36;30.99
6464;BME280;3265;42.694;23.282;2023-02-20T11:37:47;95269.19;;;17.28;31.06
6464;BME280;3265;42.694;23.282;2023-02-20T11:40:26;95267.97;;;16.97;31.74
6464;BME280;3265;42.694;23.282;2023-02-20T11:42:53;95278.47;;;16.59;31.92
6464;BME280;3265;42.694;23.282;2023-02-20T11:45:23;95294.50;;;16.45;32.46
6464;BME280;3265;42.694;23.282;2023-02-20T11:48:06;95255.88;;;15.79;32.81
6464;BME280;3265;42.694;23.282;2023-02-20T11:50:40;95234.56;;;15.48;33.95
6464;BME280;3265;42.694;23.282;2023-02-20T11:53:17;95259.25;;;16.08;33.14
6464;BME280;3265;42.694;23.282;2023-02-20T11:55:45;95244.56;;;15.62;33.28
6464;BME280;3265;42.694;23.282;2023-02-20T11:58:20;95261.00;;;15.46;33.88
6464;BME280;3265;42.694;23.282;2023-02-20T12:00:50;95254.63;;;15.42;33.65
6464;BME280;3265;42.694;23.282;2023-02-20T12:03:20;95250.56;;;15.34;34.02
6464;BME280;3265;42.694;23.282;2023-02-20T12:05:50;95255.03;;;15.62;33.83
6464;BME280;3265;42.694;23.282;2023-02-20T12:08:33;95242.06;;;15.44;33.72
6464;BME280;3265;42.694;23.282;2023-02-20T12:11:05;95215.69;;;15.34;33.21
6464;BME280;3265;42.694;23.282;2023-02-20T12:13:38;95251.19;;;15.81;33.38
6464;BME280;3265;42.694;23.282;2023-02-20T12:16:24;95248.69;;;16.36;32.41
6464;BME280;3265;42.694;23.282;2023-02-20T12:18:59;95261.91;;;16.75;31.56
6464;BME280;3265;42.694;23.282;2023-02-20T12:21:38;95244.84;;;16.56;32.00
6464;BME280;3265;42.694;23.282;2023-02-20T12:24:23;95252.59;;;16.84;31.83
6464;BME280;3265;42.694;23.282;2023-02-20T12:26:54;95258.19;;;17.09;31.17
6464;BME280;3265;42.694;23.282;2023-02-20T12:29:34;95253.38;;;17.23;30.97
6464;BME280;3265;42.694;23.282;2023-02-20T12:32:21;95275.31;;;16.95;31.68
6464;BME280;3265;42.694;23.282;2023-02-20T12:35:22;95245.53;;;17.06;31.47
6464;BME280;3265;42.694;23.282;2023-02-20T12:38:04;95248.63;;;16.81;31.31
6464;BME280;3265;42.694;23.282;2023-02-20T12:40:51;95252.13;;;16.70;31.53
6464;BME280;3265;42.694;23.282;2023-02-20T12:43:31;95241.78;;;16.14;32.28
6464;BME280;3265;42.694;23.282;2023-02-20T12:46:07;95246.72;;;16.27;32.64
6464;BME280;3265;42.694;23.282;2023-02-20T12:48:42;95248.47;;;16.38;32.35
6464;BME280;3265;42.694;23.282;2023-02-20T12:51:19;95252.63;;;16.51;31.83
6464;BME280;3265;42.694;23.282;2023-02-20T12:54:12;95265.88;;;16.44;31.92
6464;BME280;3265;42.694;23.282;2023-02-20T12:56:53;95253.03;;;16.59;32.06
6464;BME280;3265;42.694;23.282;2023-02-20T12:59:27;95255.53;;;16.87;31.59
6464;BME280;3265;42.694;23.282;2023-02-20T13:02:01;95251.16;;;17.15;30.96
6464;BME280;3265;42.694;23.282;2023-02-20T13:04:40;95242.91;;;17.49;30.40
6464;BME280;3265;42.694;23.282;2023-02-20T13:07:17;95247.94;;;17.08;30.87
6464;BME280;3265;42.694;23.282;2023-02-20T13:09:56;95255.06;;;16.90;31.31
6464;BME280;3265;42.694;23.282;2023-02-20T13:12:25;95246.56;;;16.67;31.84
6464;BME280;3265;42.694;23.282;2023-02-20T13:14:59;95249.25;;;17.10;31.35
6464;BME280;3265;42.694;23.282;2023-02-20T13:17:33;95241.94;;;17.34;30.99
6464;BME280;3265;42.694;23.282;2023-02-20T13:20:13;95248.38;;;16.50;32.01
6464;BME280;3265;42.694;23.282;2023-02-20T13:22:40;95237.00;;;16.11;32.26
6464;BME280;3265;42.694;23.282;2023-02-20T13:25:40;95253.63;;;15.71;32.80
6464;BME280;3265;42.694;23.282;2023-02-20T13:31:19;95254.34;;;15.67;32.85
6464;BME280;3265;42.694;23.282;2023-02-20T13:33:48;95269.44;;;14.73;35.00
6464;BME280;3265;42.694;23.282;2023-02-20T13:36:38;95258.44;;;14.30;35.87
6464;BME280;3265;42.694;23.282;2023-02-20T13:42:33;95250.72;;;14.23;36.54
6464;BME280;3265;42.694;23.282;2023-02-20T13:45:00;95247.06;;;14.25;36.49
6464;BME280;3265;42.694;23.282;2023-02-20T13:47:35;95274.06;;;15.06;35.50
6464;BME280;3265;42.694;23.282;2023-02-20T13:50:31;95272.72;;;15.83;34.03
6464;BME280;3265;42.694;23.282;2023-02-20T13:53:04;95272.69;;;16.12;33.52